createdAt,value
2023-04-04T00:00:44.639Z,0.00
2023-04-04T00:01:44.611Z,0.00
2023-04-04T00:02:44.642Z,0.00
2023-04-04T00:03:44.767Z,0.00
2023-04-04T00:04:44.594Z,0.00
2023-04-04T00:05:44.551Z,0.00
2023-04-04T00:06:44.562Z,0.00
2023-04-04T00:07:44.572Z,0.00
2023-04-04T00:08:44.540Z,0.00
2023-04-04T00:09:44.526Z,0.00
2023-04-04T00:10:44.550Z,0.00
2023-04-04T00:11:44.499Z,0.00
2023-04-04T00:12:44.506Z,0.00
2023-04-04T00:13:44.476Z,0.00
2023-04-04T00:14:44.491Z,0.00
2023-04-04T00:15:44.454Z,0.00
2023-04-04T00:16:44.446Z,0.00
2023-04-04T00:17:44.494Z,0.00
2023-04-04T00:18:44.438Z,0.00
2023-04-04T00:19:44.397Z,0.00
2023-04-04T00:20:44.378Z,0.00
2023-04-04T00:21:44.407Z,0.00
2023-04-04T00:22:44.368Z,0.00
2023-04-04T00:23:44.406Z,0.00
2023-04-04T00:24:44.349Z,0.00
2023-04-04T00:25:44.366Z,0.00
2023-04-04T00:26:44.335Z,0.00
2023-04-04T00:27:44.349Z,0.00
2023-04-04T00:28:44.314Z,0.00
2023-04-04T00:29:44.293Z,0.00
2023-04-04T00:30:44.269Z,0.00
2023-04-04T00:31:44.388Z,0.00
2023-04-04T00:32:44.326Z,0.00
2023-04-04T00:33:44.248Z,0.00
2023-04-04T00:34:44.216Z,0.00
2023-04-04T00:35:44.294Z,0.00
2023-04-04T00:36:44.206Z,0.00
2023-04-04T00:37:44.222Z,0.00
2023-04-04T00:38:44.236Z,0.00
2023-04-04T00:39:44.176Z,0.00
2023-04-04T00:40:44.166Z,0.00
2023-04-04T00:41:44.142Z,0.00
2023-04-04T00:42:44.234Z,0.00
2023-04-04T00:43:44.147Z,0.00
2023-04-04T00:44:44.126Z,0.00
2023-04-04T00:45:44.167Z,0.00
2023-04-04T00:46:44.326Z,0.00
2023-04-04T00:47:44.119Z,0.00
2023-04-04T00:48:44.100Z,0.00
2023-04-04T00:49:44.107Z,0.00
2023-04-04T00:50:44.064Z,0.00
2023-04-04T00:51:44.082Z,0.00
2023-04-04T00:52:44.065Z,0.00
2023-04-04T00:53:44.068Z,0.00
2023-04-04T00:54:44.060Z,0.00
2023-04-04T00:55:44.064Z,0.00
2023-04-04T00:56:43.980Z,0.00
2023-04-04T00:57:43.979Z,0.00
2023-04-04T00:58:43.993Z,0.00
2023-04-04T00:59:43.984Z,0.00
2023-04-04T01:00:44.014Z,0.00
2023-04-04T01:01:43.953Z,0.00
2023-04-04T01:02:43.941Z,0.00
2023-04-04T01:03:43.916Z,0.00
2023-04-04T01:04:43.922Z,0.00
2023-04-04T01:05:43.891Z,0.00
2023-04-04T01:06:44.871Z,0.00
2023-04-04T01:07:43.910Z,0.00
2023-04-04T01:08:43.875Z,0.00
2023-04-04T01:09:43.832Z,0.00
2023-04-04T01:10:43.835Z,0.00
2023-04-04T01:11:43.826Z,0.00
2023-04-04T01:12:43.819Z,0.00
2023-04-04T01:13:43.902Z,0.00
2023-04-04T01:14:43.769Z,0.00
2023-04-04T01:15:43.836Z,0.00
2023-04-04T01:16:43.867Z,0.00
2023-04-04T01:17:43.813Z,0.00
2023-04-04T01:18:43.764Z,0.00
2023-04-04T01:19:43.738Z,0.00
2023-04-04T01:20:43.708Z,0.00
2023-04-04T01:21:43.752Z,0.00
2023-04-04T01:22:43.722Z,0.00
2023-04-04T01:23:43.688Z,0.00
2023-04-04T01:24:43.686Z,0.00
2023-04-04T01:25:43.663Z,0.00
2023-04-04T01:26:43.657Z,0.00
2023-04-04T01:27:43.642Z,0.00
2023-04-04T01:28:43.619Z,0.00
2023-04-04T01:29:43.633Z,0.00
2023-04-04T01:30:43.826Z,0.00
2023-04-04T01:31:43.628Z,0.00
2023-04-04T01:32:43.636Z,0.00
2023-04-04T01:33:43.598Z,0.00
2023-04-04T01:34:43.551Z,0.00
2023-04-04T01:35:43.596Z,0.00
2023-04-04T01:36:43.554Z,0.00
2023-04-04T01:37:43.569Z,0.00
2023-04-04T01:38:43.520Z,0.00
2023-04-04T01:39:43.522Z,0.00
2023-04-04T01:40:43.503Z,0.00
2023-04-04T01:41:43.498Z,0.00
2023-04-04T01:42:43.525Z,0.00
2023-04-04T01:43:43.461Z,0.00
2023-04-04T01:44:43.430Z,0.00
2023-04-04T01:45:43.478Z,0.00
2023-04-04T01:46:43.495Z,0.00
2023-04-04T01:47:43.441Z,0.00
2023-04-04T01:48:43.464Z,0.00
2023-04-04T01:49:43.388Z,0.00
2023-04-04T01:50:43.376Z,0.00
2023-04-04T01:51:43.393Z,0.00
2023-04-04T01:52:43.359Z,0.00
2023-04-04T01:53:43.528Z,0.00
2023-04-04T01:54:43.352Z,0.00
2023-04-04T01:55:43.322Z,0.00
2023-04-04T01:56:43.314Z,0.00
2023-04-04T01:57:43.325Z,0.00
2023-04-04T01:58:43.322Z,0.00
2023-04-04T01:59:43.313Z,0.00
2023-04-04T02:00:43.318Z,0.00
2023-04-04T02:01:43.313Z,0.00
2023-04-04T02:02:43.274Z,0.00
2023-04-04T02:03:43.316Z,0.00
2023-04-04T02:04:43.252Z,0.00
2023-04-04T02:05:43.256Z,0.00
2023-04-04T02:06:43.206Z,0.00
2023-04-04T02:07:43.174Z,0.00
2023-04-04T02:08:43.228Z,0.00
2023-04-04T02:09:43.166Z,0.00
2023-04-04T02:10:43.359Z,0.00
2023-04-04T02:11:43.138Z,0.00
2023-04-04T02:12:43.150Z,0.00
2023-04-04T02:13:43.146Z,0.00
2023-04-04T02:14:43.112Z,0.00
2023-04-04T02:15:43.149Z,0.00
2023-04-04T02:16:43.158Z,0.00
2023-04-04T02:17:43.121Z,0.00
2023-04-04T02:18:43.078Z,0.00
2023-04-04T02:19:43.091Z,0.00
2023-04-04T02:20:43.045Z,0.00
2023-04-04T02:21:43.069Z,0.00
2023-04-04T02:22:43.030Z,0.00
2023-04-04T02:23:43.001Z,0.00
2023-04-04T02:24:43.021Z,0.00
2023-04-04T02:25:43.061Z,0.00
2023-04-04T02:26:42.984Z,0.00
2023-04-04T02:27:42.969Z,0.00
2023-04-04T02:28:42.965Z,0.00
2023-04-04T02:29:42.949Z,0.00
2023-04-04T02:30:42.990Z,0.00
2023-04-04T02:31:42.975Z,0.00
2023-04-04T02:32:42.958Z,0.00
2023-04-04T02:33:42.921Z,0.00
2023-04-04T02:34:42.927Z,0.00
2023-04-04T02:35:42.888Z,0.00
2023-04-04T02:36:42.906Z,0.00
2023-04-04T02:37:42.853Z,0.00
2023-04-04T02:38:42.910Z,0.00
2023-04-04T02:39:42.867Z,0.00
2023-04-04T02:40:43.112Z,0.00
2023-04-04T02:41:42.834Z,0.00
2023-04-04T02:42:42.802Z,0.00
2023-04-04T02:43:42.777Z,0.00
2023-04-04T02:44:42.778Z,0.00
2023-04-04T02:45:42.807Z,0.00
2023-04-04T02:46:42.811Z,0.00
2023-04-04T02:47:42.893Z,0.00
2023-04-04T02:48:42.752Z,0.00
2023-04-04T02:49:42.754Z,0.00
2023-04-04T02:50:43.082Z,0.00
2023-04-04T02:51:42.720Z,0.00
2023-04-04T02:52:42.689Z,0.00
2023-04-04T02:53:42.699Z,0.00
2023-04-04T02:54:42.671Z,0.00
2023-04-04T02:55:42.650Z,0.00
2023-04-04T02:56:42.676Z,0.00
2023-04-04T02:57:42.655Z,0.00
2023-04-04T02:58:42.778Z,0.00
2023-04-04T02:59:42.611Z,0.00
2023-04-04T03:00:42.842Z,0.00
2023-04-04T03:01:42.585Z,0.00
2023-04-04T03:02:42.651Z,0.00
2023-04-04T03:03:42.742Z,0.00
2023-04-04T03:04:42.565Z,0.00
2023-04-04T03:05:42.556Z,0.00
2023-04-04T03:06:42.540Z,0.00
2023-04-04T03:07:42.515Z,0.00
2023-04-04T03:08:42.550Z,0.00
2023-04-04T03:09:42.553Z,0.00
2023-04-04T03:10:42.661Z,0.00
2023-04-04T03:11:42.490Z,0.00
2023-04-04T03:12:42.520Z,0.00
2023-04-04T03:13:42.456Z,0.00
2023-04-04T03:14:42.488Z,0.00
2023-04-04T03:15:42.444Z,0.00
2023-04-04T03:16:42.492Z,0.00
2023-04-04T03:17:42.429Z,0.00
2023-04-04T03:18:42.434Z,0.00
2023-04-04T03:19:42.419Z,0.00
2023-04-04T03:20:42.634Z,0.00
2023-04-04T03:21:42.380Z,0.00
2023-04-04T03:22:42.363Z,0.00
2023-04-04T03:23:42.354Z,0.00
2023-04-04T03:24:42.390Z,0.00
2023-04-04T03:25:42.338Z,0.00
2023-04-04T03:26:42.373Z,0.00
2023-04-04T03:27:42.306Z,0.00
2023-04-04T03:28:42.321Z,0.00
2023-04-04T03:29:42.286Z,0.00
2023-04-04T03:30:42.566Z,0.00
2023-04-04T03:31:42.287Z,0.00
2023-04-04T03:32:42.302Z,0.00
2023-04-04T03:33:42.261Z,0.00
2023-04-04T03:34:42.223Z,0.00
2023-04-04T03:35:42.382Z,0.00
2023-04-04T03:36:42.220Z,0.00
2023-04-04T03:37:42.227Z,0.00
2023-04-04T03:38:42.181Z,0.00
2023-04-04T03:39:42.178Z,0.00
2023-04-04T03:40:42.535Z,0.00
2023-04-04T03:41:42.183Z,0.00
2023-04-04T03:42:42.207Z,0.00
2023-04-04T03:43:42.177Z,0.00
2023-04-04T03:44:42.168Z,0.00
2023-04-04T03:45:42.189Z,0.00
2023-04-04T03:46:42.117Z,0.00
2023-04-04T03:47:42.198Z,0.00
2023-04-04T03:48:42.112Z,0.00
2023-04-04T03:49:42.102Z,0.00
2023-04-04T03:50:42.372Z,0.00
2023-04-04T03:51:42.088Z,0.00
2023-04-04T03:52:42.026Z,0.00
2023-04-04T03:53:42.044Z,0.00
2023-04-04T03:54:42.064Z,0.00
2023-04-04T03:55:42.166Z,0.00
2023-04-04T03:56:42.004Z,0.00
2023-04-04T03:57:42.001Z,0.00
2023-04-04T03:58:42.049Z,0.00
2023-04-04T03:59:41.966Z,0.00
2023-04-04T04:00:42.150Z,0.00
2023-04-04T04:01:41.947Z,0.00
2023-04-04T04:02:42.058Z,0.00
2023-04-04T04:03:41.940Z,0.00
2023-04-04T04:04:42.049Z,0.00
2023-04-04T04:05:41.889Z,0.00
2023-04-04T04:06:41.907Z,0.00
2023-04-04T04:07:41.859Z,0.00
2023-04-04T04:08:41.887Z,0.00
2023-04-04T04:09:41.871Z,0.00
2023-04-04T04:10:42.102Z,0.00
2023-04-04T04:11:41.824Z,0.00
2023-04-04T04:12:41.970Z,0.00
2023-04-04T04:13:41.788Z,0.00
2023-04-04T04:14:41.807Z,0.00
2023-04-04T04:15:42.443Z,0.00
2023-04-04T04:16:41.821Z,0.00
2023-04-04T04:17:41.838Z,0.00
2023-04-04T04:18:41.771Z,0.00
2023-04-04T04:19:41.734Z,0.00
2023-04-04T04:20:41.914Z,0.00
2023-04-04T04:21:41.757Z,0.00
2023-04-04T04:22:41.718Z,0.00
2023-04-04T04:23:41.702Z,0.00
2023-04-04T04:24:41.674Z,0.00
2023-04-04T04:25:41.703Z,0.00
2023-04-04T04:26:41.664Z,0.00
2023-04-04T04:27:41.637Z,0.00
2023-04-04T04:28:41.646Z,0.00
2023-04-04T04:29:41.621Z,0.00
2023-04-04T04:30:41.774Z,0.00
2023-04-04T04:31:41.641Z,0.00
2023-04-04T04:32:41.647Z,4.00
2023-04-04T04:33:41.607Z,4.00
2023-04-04T04:34:41.586Z,4.00
2023-04-04T04:35:41.620Z,0.00
2023-04-04T04:36:41.542Z,0.00
2023-04-04T04:37:41.522Z,4.00
2023-04-04T04:38:41.552Z,4.00
2023-04-04T04:39:41.507Z,4.00
2023-04-04T04:40:41.810Z,4.00
2023-04-04T04:41:41.483Z,4.00
2023-04-04T04:42:41.488Z,4.00
2023-04-04T04:43:41.456Z,4.00
2023-04-04T04:44:41.498Z,8.00
2023-04-04T04:45:41.465Z,8.00
2023-04-04T04:46:41.479Z,12.00
2023-04-04T04:47:41.475Z,12.00
2023-04-04T04:48:41.462Z,16.00
2023-04-04T04:49:41.396Z,16.00
2023-04-04T04:50:41.677Z,16.00
2023-04-04T04:51:41.381Z,20.00
2023-04-04T04:52:41.414Z,24.00
2023-04-04T04:53:41.378Z,24.00
2023-04-04T04:54:41.334Z,28.00
2023-04-04T04:55:41.329Z,28.00
2023-04-04T04:56:41.369Z,32.00
2023-04-04T04:57:41.325Z,36.00
2023-04-04T04:58:41.313Z,40.00
2023-04-04T04:59:41.316Z,44.00
2023-04-04T05:00:41.660Z,48.00
2023-04-04T05:01:41.284Z,48.00
2023-04-04T05:02:41.392Z,56.00
2023-04-04T05:03:41.317Z,60.00
2023-04-04T05:04:41.260Z,68.00
2023-04-04T05:05:41.221Z,72.00
2023-04-04T05:06:41.227Z,76.00
2023-04-04T05:07:41.229Z,84.00
2023-04-04T05:08:41.240Z,92.00
2023-04-04T05:09:41.165Z,96.00
2023-04-04T05:10:41.619Z,104.00
2023-04-04T05:11:41.163Z,108.00
2023-04-04T05:12:41.164Z,116.00
2023-04-04T05:13:41.163Z,124.00
2023-04-04T05:14:41.120Z,128.00
2023-04-04T05:15:41.190Z,136.00
2023-04-04T05:16:41.157Z,148.00
2023-04-04T05:17:41.125Z,152.00
2023-04-04T05:18:41.104Z,160.00
2023-04-04T05:19:41.131Z,164.00
2023-04-04T05:20:41.312Z,172.00
2023-04-04T05:21:41.048Z,176.00
2023-04-04T05:22:41.072Z,184.00
2023-04-04T05:23:41.009Z,196.00
2023-04-04T05:24:41.366Z,196.00
2023-04-04T05:25:41.006Z,204.00
2023-04-04T05:26:40.996Z,208.00
2023-04-04T05:27:41.006Z,212.00
2023-04-04T05:28:40.969Z,224.00
2023-04-04T05:29:41.003Z,228.00
2023-04-04T05:30:41.327Z,236.00
2023-04-04T05:31:40.936Z,244.00
2023-04-04T05:32:40.982Z,256.00
2023-04-04T05:33:40.930Z,260.00
2023-04-04T05:34:40.936Z,268.00
2023-04-04T05:35:40.968Z,272.00
2023-04-04T05:36:40.914Z,276.00
2023-04-04T05:37:40.876Z,280.00
2023-04-04T05:38:40.865Z,284.00
2023-04-04T05:39:40.910Z,288.00
2023-04-04T05:40:41.149Z,292.00
2023-04-04T05:41:40.853Z,300.00
2023-04-04T05:42:40.814Z,308.00
2023-04-04T05:43:40.810Z,316.00
2023-04-04T05:44:41.608Z,324.00
2023-04-04T05:45:41.978Z,332.00
2023-04-04T05:46:40.816Z,340.00
2023-04-04T05:47:40.742Z,348.00
2023-04-04T05:48:40.782Z,360.00
2023-04-04T05:49:40.758Z,364.00
2023-04-04T05:50:40.965Z,372.00
2023-04-04T05:51:40.726Z,368.00
2023-04-04T05:52:40.822Z,368.00
2023-04-04T05:53:40.678Z,384.00
2023-04-04T05:54:40.686Z,384.00
2023-04-04T05:55:40.696Z,400.00
2023-04-04T05:56:40.674Z,400.00
2023-04-04T05:57:40.653Z,420.00
2023-04-04T05:58:40.730Z,432.00
2023-04-04T05:59:40.631Z,440.00
2023-04-04T06:00:40.882Z,452.00
2023-04-04T06:01:40.605Z,464.00
2023-04-04T06:02:40.693Z,476.00
2023-04-04T06:03:40.666Z,492.00
2023-04-04T06:04:40.567Z,500.00
2023-04-04T06:05:40.676Z,504.00
2023-04-04T06:06:40.553Z,516.00
2023-04-04T06:07:40.572Z,516.00
2023-04-04T06:08:52.837Z,536.00
2023-04-04T06:09:41.607Z,552.00
2023-04-04T06:10:40.720Z,572.00
2023-04-04T06:11:40.509Z,592.00
2023-04-04T06:12:40.489Z,616.00
2023-04-04T06:13:40.536Z,640.00
2023-04-04T06:14:40.457Z,652.00
2023-04-04T06:15:40.486Z,656.00
2023-04-04T06:16:40.427Z,652.00
2023-04-04T06:17:40.587Z,652.00
2023-04-04T06:18:40.450Z,644.00
2023-04-04T06:19:40.499Z,660.00
2023-04-04T06:20:40.682Z,664.00
2023-04-04T06:21:40.390Z,668.00
2023-04-04T06:22:40.362Z,672.00
2023-04-04T06:23:40.392Z,668.00
2023-04-04T06:24:40.534Z,672.00
2023-04-04T06:25:40.334Z,684.00
2023-04-04T06:26:40.315Z,680.00
2023-04-04T06:27:40.388Z,684.00
2023-04-04T06:28:40.320Z,688.00
2023-04-04T06:29:40.310Z,688.00
2023-04-04T06:30:40.476Z,668.00
2023-04-04T06:31:40.357Z,656.00
2023-04-04T06:32:40.277Z,668.00
2023-04-04T06:33:40.254Z,672.00
2023-04-04T06:34:40.249Z,688.00
2023-04-04T06:35:40.218Z,696.00
2023-04-04T06:36:40.230Z,704.00
2023-04-04T06:37:40.193Z,700.00
2023-04-04T06:38:40.190Z,696.00
2023-04-04T06:39:40.204Z,696.00
2023-04-04T06:40:40.395Z,696.00
2023-04-04T06:41:40.181Z,696.00
2023-04-04T06:42:40.158Z,700.00
2023-04-04T06:43:40.152Z,704.00
2023-04-04T06:44:40.224Z,704.00
2023-04-04T06:45:40.144Z,700.00
2023-04-04T06:46:40.385Z,712.00
2023-04-04T06:47:40.151Z,716.00
2023-04-04T06:48:40.103Z,728.00
2023-04-04T06:49:40.067Z,728.00
2023-04-04T06:50:40.275Z,732.00
2023-04-04T06:51:40.057Z,728.00
2023-04-04T06:52:40.114Z,728.00
2023-04-04T06:53:40.064Z,736.00
2023-04-04T06:54:40.005Z,736.00
2023-04-04T06:55:40.012Z,740.00
2023-04-04T06:56:40.003Z,740.00
2023-04-04T06:57:39.984Z,744.00
2023-04-04T06:58:39.977Z,744.00
2023-04-04T06:59:39.957Z,752.00
2023-04-04T07:00:40.231Z,760.00
2023-04-04T07:01:39.968Z,764.00
2023-04-04T07:02:40.183Z,768.00
2023-04-04T07:03:39.930Z,764.00
2023-04-04T07:04:39.898Z,772.00
2023-04-04T07:05:39.892Z,752.00
2023-04-04T07:06:39.908Z,784.00
2023-04-04T07:07:39.888Z,784.00
2023-04-04T07:08:39.977Z,816.00
2023-04-04T07:09:39.907Z,824.00
2023-04-04T07:10:41.109Z,828.00
2023-04-04T07:11:39.820Z,828.00
2023-04-04T07:12:39.824Z,856.00
2023-04-04T07:13:39.812Z,872.00
2023-04-04T07:14:39.804Z,880.00
2023-04-04T07:15:39.771Z,896.00
2023-04-04T07:16:39.832Z,912.00
2023-04-04T07:17:39.907Z,924.00
2023-04-04T07:18:39.743Z,936.00
2023-04-04T07:19:39.738Z,944.00
2023-04-04T07:20:39.942Z,948.00
2023-04-04T07:21:39.772Z,956.00
2023-04-04T07:22:39.692Z,960.00
2023-04-04T07:23:39.865Z,960.00
2023-04-04T07:24:39.678Z,928.00
2023-04-04T07:25:39.706Z,972.00
2023-04-04T07:26:39.649Z,984.00
2023-04-04T07:27:39.657Z,996.00
2023-04-04T07:28:39.656Z,1008.00
2023-04-04T07:29:39.640Z,1020.00
2023-04-04T07:30:39.744Z,1032.00
2023-04-04T07:31:39.682Z,1028.00
2023-04-04T07:32:39.630Z,1064.00
2023-04-04T07:33:40.370Z,1048.00
2023-04-04T07:34:39.552Z,1104.00
2023-04-04T07:35:39.587Z,1100.00
2023-04-04T07:36:39.559Z,1136.00
2023-04-04T07:37:39.564Z,1160.00
2023-04-04T07:38:39.558Z,1152.00
2023-04-04T07:39:39.514Z,1144.00
2023-04-04T07:40:39.738Z,1164.00
2023-04-04T07:41:39.485Z,1164.00
2023-04-04T07:42:39.470Z,1160.00
2023-04-04T07:43:39.501Z,1164.00
2023-04-04T07:44:39.462Z,1192.00
2023-04-04T07:45:39.448Z,1172.00
2023-04-04T07:46:39.482Z,1160.00
2023-04-04T07:47:39.478Z,1160.00
2023-04-04T07:48:39.440Z,1204.00
2023-04-04T07:49:39.407Z,1152.00
2023-04-04T07:50:39.535Z,1132.00
2023-04-04T07:51:39.392Z,1248.00
2023-04-04T07:52:39.372Z,1224.00
2023-04-04T07:53:39.560Z,1192.00
2023-04-04T07:54:39.331Z,1184.00
2023-04-04T07:55:39.336Z,1272.00
2023-04-04T07:56:39.339Z,1276.00
2023-04-04T07:57:39.327Z,1284.00
2023-04-04T07:58:39.322Z,1188.00
2023-04-04T07:59:39.277Z,1308.00
2023-04-04T08:00:39.627Z,1304.00
2023-04-04T08:01:39.266Z,1264.00
2023-04-04T08:02:39.456Z,1280.00
2023-04-04T08:03:39.338Z,1028.00
2023-04-04T08:04:39.251Z,1344.00
2023-04-04T08:05:39.222Z,1328.00
2023-04-04T08:06:39.227Z,1324.00
2023-04-04T08:07:39.191Z,1304.00
2023-04-04T08:08:39.164Z,1064.00
2023-04-04T08:09:39.165Z,1248.00
2023-04-04T08:10:39.309Z,1260.00
2023-04-04T08:11:39.186Z,1240.00
2023-04-04T08:12:39.124Z,1228.00
2023-04-04T08:13:39.978Z,1208.00
2023-04-04T08:14:39.120Z,1208.00
2023-04-04T08:15:39.119Z,1196.00
2023-04-04T08:16:39.084Z,1180.00
2023-04-04T08:17:39.090Z,1184.00
2023-04-04T08:18:39.093Z,1180.00
2023-04-04T08:19:39.081Z,1176.00
2023-04-04T08:20:39.208Z,1172.00
2023-04-04T08:21:39.021Z,1172.00
2023-04-04T08:22:39.037Z,1176.00
2023-04-04T08:23:39.032Z,1176.00
2023-04-04T08:24:38.998Z,1180.00
2023-04-04T08:25:38.990Z,1124.00
2023-04-04T08:26:38.964Z,1040.00
2023-04-04T08:27:38.968Z,1092.00
2023-04-04T08:28:39.119Z,1164.00
2023-04-04T08:29:38.961Z,1184.00
2023-04-04T08:30:39.046Z,1160.00
2023-04-04T08:31:38.978Z,1080.00
2023-04-04T08:32:38.924Z,1244.00
2023-04-04T08:33:47.340Z,1260.00
2023-04-04T08:34:39.929Z,1268.00
2023-04-04T08:35:38.894Z,1276.00
2023-04-04T08:36:38.863Z,1280.00
2023-04-04T08:37:38.852Z,1288.00
2023-04-04T08:38:38.836Z,1292.00
2023-04-04T08:39:38.824Z,1300.00
2023-04-04T08:40:39.019Z,1308.00
2023-04-04T08:41:38.804Z,1316.00
2023-04-04T08:42:38.816Z,1320.00
2023-04-04T08:43:38.778Z,1328.00
2023-04-04T08:44:38.768Z,1332.00
2023-04-04T08:45:38.750Z,1332.00
2023-04-04T08:46:38.838Z,1332.00
2023-04-04T08:47:38.750Z,1352.00
2023-04-04T08:48:38.715Z,1356.00
2023-04-04T08:49:38.736Z,1360.00
2023-04-04T08:50:39.125Z,1364.00
2023-04-04T08:51:38.696Z,1368.00
2023-04-04T08:52:38.670Z,1372.00
2023-04-04T08:53:38.750Z,1388.00
2023-04-04T08:54:38.648Z,1396.00
2023-04-04T08:55:38.654Z,1416.00
2023-04-04T08:56:38.653Z,1424.00
2023-04-04T08:57:38.624Z,1432.00
2023-04-04T08:58:38.612Z,1440.00
2023-04-04T08:59:38.671Z,1448.00
2023-04-04T09:00:38.869Z,1460.00
2023-04-04T09:01:38.607Z,1468.00
2023-04-04T09:02:38.690Z,1468.00
2023-04-04T09:03:38.587Z,1476.00
2023-04-04T09:04:38.551Z,1484.00
2023-04-04T09:05:38.550Z,1492.00
2023-04-04T09:06:38.528Z,1504.00
2023-04-04T09:07:39.409Z,1512.00
2023-04-04T09:08:38.497Z,1456.00
2023-04-04T09:09:38.509Z,1528.00
2023-04-04T09:10:38.657Z,1532.00
2023-04-04T09:11:38.479Z,1548.00
2023-04-04T09:12:38.479Z,1552.00
2023-04-04T09:13:39.561Z,1564.00
2023-04-04T09:14:38.432Z,1572.00
2023-04-04T09:15:38.456Z,1580.00
2023-04-04T09:16:38.451Z,1588.00
2023-04-04T09:17:38.439Z,1604.00
2023-04-04T09:18:38.392Z,1616.00
2023-04-04T09:19:38.395Z,1628.00
2023-04-04T09:20:38.845Z,1648.00
2023-04-04T09:21:38.396Z,1672.00
2023-04-04T09:22:38.359Z,1680.00
2023-04-04T09:23:38.360Z,1692.00
2023-04-04T09:24:38.319Z,1700.00
2023-04-04T09:25:38.358Z,1704.00
2023-04-04T09:26:38.300Z,1724.00
2023-04-04T09:27:38.290Z,1732.00
2023-04-04T09:28:38.296Z,1748.00
2023-04-04T09:29:38.277Z,1744.00
2023-04-04T09:30:38.683Z,1696.00
2023-04-04T09:31:38.300Z,1764.00
2023-04-04T09:32:38.246Z,1776.00
2023-04-04T09:33:38.227Z,1780.00
2023-04-04T09:34:38.220Z,1748.00
2023-04-04T09:35:38.245Z,1792.00
2023-04-04T09:36:38.400Z,1636.00
2023-04-04T09:37:38.173Z,1812.00
2023-04-04T09:38:38.167Z,1844.00
2023-04-04T09:39:38.158Z,1872.00
2023-04-04T09:40:38.530Z,1880.00
2023-04-04T09:41:38.401Z,1884.00
2023-04-04T09:42:38.115Z,1824.00
2023-04-04T09:43:38.110Z,1744.00
2023-04-04T09:44:38.292Z,1876.00
2023-04-04T09:45:38.106Z,1904.00
2023-04-04T09:46:38.181Z,1912.00
2023-04-04T09:47:38.130Z,1872.00
2023-04-04T09:48:38.053Z,1912.00
2023-04-04T09:49:38.039Z,1852.00
2023-04-04T09:50:38.340Z,1916.00
2023-04-04T09:51:38.025Z,1932.00
2023-04-04T09:52:38.019Z,1928.00
2023-04-04T09:53:38.044Z,1936.00
2023-04-04T09:54:47.765Z,1940.00
2023-04-04T09:55:39.077Z,1932.00
2023-04-04T09:56:37.963Z,1948.00
2023-04-04T09:57:37.965Z,1964.00
2023-04-04T09:58:39.139Z,1984.00
2023-04-04T09:59:39.013Z,1988.00
2023-04-04T10:00:38.223Z,2004.00
2023-04-04T10:01:38.016Z,2016.00
2023-04-04T10:02:38.196Z,2024.00
2023-04-04T10:03:38.112Z,2036.00
2023-04-04T10:04:37.886Z,1992.00
2023-04-04T10:05:37.867Z,2064.00
2023-04-04T10:06:37.880Z,2072.00
2023-04-04T10:07:37.879Z,2080.00
2023-04-04T10:08:37.842Z,2084.00
2023-04-04T10:09:37.823Z,2088.00
2023-04-04T10:10:37.987Z,2096.00
2023-04-04T10:11:37.826Z,2100.00
2023-04-04T10:12:37.778Z,2108.00
2023-04-04T10:13:37.767Z,2112.00
2023-04-04T10:14:37.788Z,2116.00
2023-04-04T10:15:37.776Z,2112.00
2023-04-04T10:16:38.273Z,2116.00
2023-04-04T10:17:37.802Z,2120.00
2023-04-04T10:18:37.728Z,2124.00
2023-04-04T10:19:37.739Z,2124.00
2023-04-04T10:20:37.872Z,2132.00
2023-04-04T10:21:37.705Z,2136.00
2023-04-04T10:22:37.704Z,2144.00
2023-04-04T10:23:37.660Z,2148.00
2023-04-04T10:24:37.638Z,2144.00
2023-04-04T10:25:37.627Z,2144.00
2023-04-04T10:26:37.925Z,2152.00
2023-04-04T10:27:37.606Z,2152.00
2023-04-04T10:28:37.609Z,2148.00
2023-04-04T10:29:37.602Z,2144.00
2023-04-04T10:30:37.935Z,2132.00
2023-04-04T10:31:37.595Z,2124.00
2023-04-04T10:32:37.583Z,2120.00
2023-04-04T10:33:37.559Z,2116.00
2023-04-04T10:34:37.529Z,2124.00
2023-04-04T10:35:37.609Z,2128.00
2023-04-04T10:36:37.504Z,2140.00
2023-04-04T10:37:37.492Z,2148.00
2023-04-04T10:38:37.493Z,2164.00
2023-04-04T10:39:37.473Z,2176.00
2023-04-04T10:40:37.804Z,2180.00
2023-04-04T10:41:37.460Z,2180.00
2023-04-04T10:42:37.506Z,2180.00
2023-04-04T10:43:37.419Z,2176.00
2023-04-04T10:44:37.436Z,2184.00
2023-04-04T10:45:37.402Z,2184.00
2023-04-04T10:46:37.541Z,2192.00
2023-04-04T10:47:37.391Z,2192.00
2023-04-04T10:48:37.383Z,2204.00
2023-04-04T10:49:37.382Z,2204.00
2023-04-04T10:50:37.364Z,2208.00
2023-04-04T10:51:48.736Z,2216.00
2023-04-04T10:52:38.329Z,2220.00
2023-04-04T10:53:37.341Z,2228.00
2023-04-04T10:54:37.305Z,2236.00
2023-04-04T10:55:37.946Z,2236.00
2023-04-04T10:56:37.278Z,2248.00
2023-04-04T10:57:37.271Z,2252.00
2023-04-04T10:58:37.286Z,2256.00
2023-04-04T10:59:37.275Z,2272.00
2023-04-04T11:00:37.301Z,2284.00
2023-04-04T11:01:37.211Z,2284.00
2023-04-04T11:02:37.242Z,2296.00
2023-04-04T11:03:37.223Z,2300.00
2023-04-04T11:04:37.319Z,2312.00
2023-04-04T11:05:37.226Z,2320.00
2023-04-04T11:06:37.171Z,2328.00
2023-04-04T11:07:37.161Z,2328.00
2023-04-04T11:08:37.180Z,2340.00
2023-04-04T11:09:37.136Z,2352.00
2023-04-04T11:10:37.181Z,2356.00
2023-04-04T11:11:38.148Z,2360.00
2023-04-04T11:12:37.107Z,2368.00
2023-04-04T11:13:37.126Z,2372.00
2023-04-04T11:14:37.085Z,2376.00
2023-04-04T11:15:37.362Z,2376.00
2023-04-04T11:16:37.080Z,2384.00
2023-04-04T11:17:37.053Z,2392.00
2023-04-04T11:18:37.117Z,2404.00
2023-04-04T11:19:37.038Z,2388.00
2023-04-04T11:20:37.006Z,2392.00
2023-04-04T11:21:37.004Z,2388.00
2023-04-04T11:22:37.015Z,2384.00
2023-04-04T11:23:36.970Z,2392.00
2023-04-04T11:24:37.039Z,2392.00
2023-04-04T11:25:37.038Z,2392.00
2023-04-04T11:26:36.972Z,2388.00
2023-04-04T11:27:37.024Z,2388.00
2023-04-04T11:28:36.969Z,2396.00
2023-04-04T11:29:36.897Z,2400.00
2023-04-04T11:30:36.906Z,2396.00
2023-04-04T11:31:36.898Z,2408.00
2023-04-04T11:32:36.933Z,2316.00
2023-04-04T11:33:36.875Z,2420.00
2023-04-04T11:34:36.868Z,2420.00
2023-04-04T11:35:36.935Z,2440.00
2023-04-04T11:36:36.886Z,2440.00
2023-04-04T11:37:36.826Z,2452.00
2023-04-04T11:38:36.807Z,2460.00
2023-04-04T11:39:36.801Z,2472.00
2023-04-04T11:40:36.780Z,2488.00
2023-04-04T11:41:36.769Z,2500.00
2023-04-04T11:42:36.769Z,2520.00
2023-04-04T11:43:36.748Z,2528.00
2023-04-04T11:44:36.748Z,2536.00
2023-04-04T11:45:36.822Z,2544.00
2023-04-04T11:46:36.828Z,2572.00
2023-04-04T11:47:36.717Z,2588.00
2023-04-04T11:48:36.698Z,2620.00
2023-04-04T11:49:36.704Z,2548.00
2023-04-04T11:50:36.679Z,2692.00
2023-04-04T11:51:36.661Z,2728.00
2023-04-04T11:52:36.652Z,2768.00
2023-04-04T11:53:36.636Z,2800.00
2023-04-04T11:54:36.619Z,2828.00
2023-04-04T11:55:36.701Z,2856.00
2023-04-04T11:56:36.744Z,2880.00
2023-04-04T11:57:36.605Z,2892.00
2023-04-04T11:58:36.575Z,2912.00
2023-04-04T11:59:36.574Z,2936.00
2023-04-04T12:00:36.581Z,2968.00
2023-04-04T12:01:36.556Z,3000.00
2023-04-04T12:02:36.584Z,3020.00
2023-04-04T12:03:36.642Z,3024.00
2023-04-04T12:04:37.355Z,3032.00
2023-04-04T12:05:36.518Z,3044.00
2023-04-04T12:06:36.489Z,3048.00
2023-04-04T12:07:36.469Z,3056.00
2023-04-04T12:08:36.485Z,3088.00
2023-04-04T12:09:36.441Z,3096.00
2023-04-04T12:10:36.515Z,3084.00
2023-04-04T12:11:36.429Z,3056.00
2023-04-04T12:12:36.426Z,3020.00
2023-04-04T12:13:36.427Z,2988.00
2023-04-04T12:14:36.401Z,2960.00
2023-04-04T12:15:36.521Z,2940.00
2023-04-04T12:16:36.453Z,2932.00
2023-04-04T12:17:36.392Z,2900.00
2023-04-04T12:18:36.361Z,2908.00
2023-04-04T12:19:36.334Z,2900.00
2023-04-04T12:20:36.364Z,2868.00
2023-04-04T12:21:36.321Z,2872.00
2023-04-04T12:22:36.323Z,2844.00
2023-04-04T12:23:36.285Z,2868.00
2023-04-04T12:24:36.316Z,2804.00
2023-04-04T12:25:36.309Z,2884.00
2023-04-04T12:26:36.262Z,2864.00
2023-04-04T12:27:36.249Z,2920.00
2023-04-04T12:28:36.250Z,2904.00
2023-04-04T12:29:36.375Z,2896.00
2023-04-04T12:30:36.235Z,2912.00
2023-04-04T12:31:36.259Z,2900.00
2023-04-04T12:32:36.232Z,2908.00
2023-04-04T12:33:36.175Z,2904.00
2023-04-04T12:34:36.441Z,2896.00
2023-04-04T12:35:36.456Z,2888.00
2023-04-04T12:36:36.241Z,2900.00
2023-04-04T12:37:36.150Z,2896.00